Time;durP1;ratioP1;P1;durP2;ratioP2;P2;SDS_P1;SDS_P2;PMS_P1;PMS_P2;Temp;Humidity;BMP_temperature;BMP_pressure;BME280_temperature;BME280_humidity;BME280_pressure;Samples;Min_cycle;Max_cycle;Signal;HPM_P1;HPM_P2
2022/11/18 00:01:33;;;;;;;2.85;2.60;;;6.20;99.90;;;;;;5046512;28;20060;-67
2022/11/18 00:03:59;;;;;;;5.13;4.07;;;6.20;99.90;;;;;;5031602;28;20053;-67
2022/11/18 00:06:27;;;;;;;8.80;4.60;;;6.10;99.90;;;;;;5046265;28;20049;-66
2022/11/18 00:08:54;;;;;;;2.60;2.33;;;6.20;99.90;;;;;;5048549;28;20084;-67
2022/11/18 00:14:18;;;;;;;4.57;4.00;;;6.20;99.90;;;;;;5046812;28;20422;-67
2022/11/18 00:16:47;;;;;;;4.43;4.03;;;6.10;99.90;;;;;;5046684;28;20041;-67
2022/11/18 00:19:13;;;;;;;8.02;4.40;;;6.20;99.90;;;;;;5048346;28;20045;-67
2022/11/18 00:21:38;;;;;;;8.98;2.55;;;6.10;99.90;;;;;;5046814;28;20045;-67
2022/11/18 00:24:11;;;;;;;5.25;4.35;;;6.10;99.90;;;;;;5048220;28;20134;-67
2022/11/18 00:26:37;;;;;;;4.30;3.92;;;6.20;99.90;;;;;;5047393;28;20634;-67
2022/11/18 00:29:03;;;;;;;4.25;3.65;;;6.20;99.90;;;;;;5047540;28;20084;-67
2022/11/18 00:31:29;;;;;;;7.28;4.50;;;6.20;99.90;;;;;;5030181;28;20036;-67
2022/11/18 00:33:55;;;;;;;11.02;4.93;;;6.10;99.90;;;;;;5049275;28;20041;-67
2022/11/18 00:36:20;;;;;;;6.10;5.10;;;6.20;99.90;;;;;;5046057;28;20045;-67
2022/11/18 00:38:46;;;;;;;11.02;5.93;;;6.10;99.90;;;;;;5049194;28;20041;-67
2022/11/18 00:41:14;;;;;;;7.10;3.58;;;6.10;99.90;;;;;;5046130;28;20083;-67
2022/11/18 00:43:41;;;;;;;13.15;5.45;;;6.20;99.90;;;;;;5029273;28;20041;-67
2022/11/18 00:46:09;;;;;;;7.90;5.25;;;6.10;99.90;;;;;;5046684;28;20052;-67
2022/11/18 00:48:35;;;;;;;5.80;4.18;;;6.10;99.90;;;;;;5046583;28;20051;-67
2022/11/18 00:51:16;;;;;;;10.32;4.63;;;6.10;99.90;;;;;;5049127;28;20063;-67
2022/11/18 00:53:43;;;;;;;5.50;4.32;;;6.10;99.90;;;;;;5045157;28;20045;-67
2022/11/18 00:56:09;;;;;;;6.78;4.63;;;6.10;99.90;;;;;;5039257;28;20083;-67
2022/11/18 00:58:35;;;;;;;8.07;4.80;;;6.10;99.90;;;;;;5045735;28;20398;-67
2022/11/18 01:01:02;;;;;;;9.13;5.25;;;6.00;99.90;;;;;;5044981;28;20052;-67
2022/11/18 01:03:28;;;;;;;8.32;4.80;;;6.00;99.90;;;;;;5047677;28;20090;-67
2022/11/18 01:05:54;;;;;;;2.92;2.63;;;6.00;99.90;;;;;;5020787;28;20049;-67
2022/11/18 01:08:20;;;;;;;4.97;4.05;;;5.90;99.90;;;;;;5042277;28;20051;-67
2022/11/18 01:10:48;;;;;;;4.60;4.13;;;6.00;99.90;;;;;;5045479;28;20150;-67
2022/11/18 01:13:20;;;;;;;5.10;4.32;;;6.00;99.90;;;;;;5046822;28;20060;-67
2022/11/18 01:15:54;;;;;;;4.47;3.92;;;6.00;99.90;;;;;;5046948;28;20048;-67
2022/11/18 01:18:25;;;;;;;8.23;4.30;;;6.00;99.90;;;;;;5046924;28;20053;-67
2022/11/18 01:20:52;;;;;;;9.48;4.32;;;6.00;99.90;;;;;;5047671;28;20113;-67
2022/11/18 01:23:19;;;;;;;14.45;4.63;;;6.00;99.90;;;;;;5047233;28;20072;-67
2022/11/18 01:25:49;;;;;;;8.95;4.10;;;6.00;99.90;;;;;;5029707;28;20065;-67
2022/11/18 01:28:16;;;;;;;7.85;5.18;;;6.00;99.90;;;;;;5046882;28;20033;-67
2022/11/18 01:30:42;;;;;;;8.63;4.80;;;6.00;99.90;;;;;;5046119;28;20084;-67
2022/11/18 01:33:09;;;;;;;8.30;4.53;;;6.00;99.90;;;;;;5044923;28;20097;-67
2022/11/18 01:35:39;;;;;;;5.22;4.47;;;6.00;99.90;;;;;;5047679;28;20099;-67
2022/11/18 01:38:06;;;;;;;5.28;4.28;;;6.00;99.90;;;;;;5046263;28;20120;-67
2022/11/18 01:40:32;;;;;;;7.15;3.83;;;5.90;99.90;;;;;;5032823;28;20136;-67
2022/11/18 01:42:58;;;;;;;6.15;4.28;;;5.90;99.90;;;;;;5046498;28;20053;-67
2022/11/18 01:45:31;;;;;;;8.00;5.40;;;6.00;99.90;;;;;;5046229;28;20120;-67
2022/11/18 01:48:06;;;;;;;8.38;4.95;;;5.90;99.90;;;;;;5046888;28;20045;-67
2022/11/18 01:50:37;;;;;;;10.85;5.53;;;6.00;99.90;;;;;;5044844;28;20106;-67
2022/11/18 01:53:16;;;;;;;11.45;6.72;;;5.90;99.90;;;;;;5046690;28;20056;-67
2022/11/18 01:55:47;;;;;;;11.57;3.33;;;5.90;99.90;;;;;;5045559;28;20049;-67
2022/11/18 01:58:30;;;;;;;7.57;5.07;;;5.90;99.90;;;;;;5045472;28;20068;-67
2022/11/18 02:00:57;;;;;;;4.68;3.97;;;5.90;99.90;;;;;;5047774;28;20120;-66
2022/11/18 02:03:25;;;;;;;11.57;6.72;;;5.90;99.90;;;;;;5040586;28;20102;-67
2022/11/18 02:05:52;;;;;;;14.98;5.30;;;5.90;99.90;;;;;;5045910;28;20396;-67
2022/11/18 02:08:19;;;;;;;11.00;5.38;;;5.90;99.90;;;;;;5045176;28;20049;-67
2022/11/18 02:10:44;;;;;;;10.30;6.07;;;5.90;99.90;;;;;;5045148;28;20088;-67
2022/11/18 02:13:12;;;;;;;7.10;5.30;;;5.90;99.90;;;;;;5046106;28;20073;-66
2022/11/18 02:15:50;;;;;;;13.55;6.72;;;5.90;99.90;;;;;;5043268;28;20098;-67
2022/11/18 02:18:27;;;;;;;9.82;6.38;;;5.90;99.90;;;;;;5046520;28;20048;-67
2022/11/18 02:21:20;;;;;;;9.55;5.57;;;5.80;99.90;;;;;;5045591;28;20068;-67
2022/11/18 02:24:20;;;;;;;9.23;4.57;;;5.80;99.90;;;;;;5045052;28;20094;-67
2022/11/18 02:27:17;;;;;;;11.57;6.72;;;5.80;99.90;;;;;;5035154;28;20179;-67
2022/11/18 02:29:54;;;;;;;7.75;4.28;;;5.80;99.90;;;;;;5033743;28;20590;-67
2022/11/18 02:32:29;;;;;;;11.32;5.80;;;5.80;99.90;;;;;;5046612;28;20071;-67
2022/11/18 02:35:17;;;;;;;18.13;5.90;;;5.80;99.90;;;;;;5045248;28;20045;-67
2022/11/18 02:37:49;;;;;;;8.65;5.40;;;5.80;99.90;;;;;;5043654;28;20418;-67
2022/11/18 02:40:30;;;;;;;12.88;6.20;;;5.80;99.90;;;;;;5044224;28;20049;-67
2022/11/18 02:43:35;;;;;;;9.05;5.38;;;5.80;99.90;;;;;;5045391;28;20052;-67
2022/11/18 02:46:06;;;;;;;12.50;5.90;;;5.70;99.90;;;;;;5048974;28;20388;-67
2022/11/18 02:48:37;;;;;;;6.13;3.80;;;5.80;99.90;;;;;;5049485;28;20041;-67
2022/11/18 02:51:03;;;;;;;;;;;5.70;99.90;;;;;;5048535;28;20174;-67
2022/11/18 02:53:31;;;;;;;10.82;4.95;;;5.70;99.90;;;;;;5049519;28;19924;-67
2022/11/18 02:55:59;;;;;;;10.52;5.90;;;5.70;99.90;;;;;;5049921;28;20369;-67
2022/11/18 02:58:25;;;;;;;11.35;5.90;;;5.70;99.90;;;;;;5021826;28;20490;-67
2022/11/18 03:00:55;;;;;;;11.98;6.28;;;5.70;99.90;;;;;;5050079;28;20120;-67
2022/11/18 03:03:33;;;;;;;7.25;5.50;;;5.70;99.90;;;;;;5049491;28;20064;-67
2022/11/18 03:06:10;;;;;;;12.52;6.18;;;5.80;99.90;;;;;;5050723;28;20047;-67
2022/11/18 03:08:45;;;;;;;11.25;5.93;;;5.70;99.90;;;;;;5044166;28;20048;-67
2022/11/18 03:11:17;;;;;;;9.80;5.65;;;5.70;99.90;;;;;;5049585;28;20049;-67
2022/11/18 03:14:05;;;;;;;11.52;6.38;;;5.70;99.90;;;;;;5048704;28;20570;-67
2022/11/18 03:16:43;;;;;;;7.47;4.38;;;5.70;99.90;;;;;;5036763;28;20128;-67
2022/11/18 03:19:21;;;;;;;12.15;6.30;;;5.70;99.90;;;;;;5050701;28;20044;-67
2022/11/18 03:22:08;;;;;;;7.28;3.58;;;5.70;99.90;;;;;;5031818;28;20495;-67
2022/11/18 03:24:39;;;;;;;13.60;6.15;;;5.70;99.90;;;;;;5033818;28;20041;-66
2022/11/18 03:27:22;;;;;;;14.50;6.10;;;5.70;99.90;;;;;;5049333;28;20045;-67
2022/11/18 03:30:03;;;;;;;12.85;5.78;;;5.70;99.90;;;;;;5048590;28;20041;-67
2022/11/18 03:32:31;;;;;;;11.95;5.82;;;5.70;99.90;;;;;;5049587;28;20122;-67
2022/11/18 03:35:05;;;;;;;10.25;5.60;;;5.70;99.90;;;;;;5031570;28;20044;-67
2022/11/18 03:37:35;;;;;;;10.18;5.78;;;5.70;99.90;;;;;;5049974;28;20045;-67
2022/11/18 03:40:10;;;;;;;8.82;5.00;;;5.70;99.90;;;;;;5048266;28;20128;-67
2022/11/18 03:42:41;;;;;;;10.35;6.38;;;5.70;99.90;;;;;;5049302;28;20056;-67
2022/11/18 03:45:27;;;;;;;;;;;5.70;99.90;;;;;;5049405;28;20455;-67
2022/11/18 03:48:15;;;;;;;7.57;5.10;;;5.70;99.90;;;;;;5047201;28;19971;-66
2022/11/18 03:50:55;;;;;;;6.40;4.35;;;5.60;99.90;;;;;;5042186;28;20120;-67
2022/11/18 03:53:24;;;;;;;7.85;5.45;;;5.70;99.90;;;;;;5049888;28;20056;-67
2022/11/18 03:55:53;;;;;;;9.90;5.55;;;5.70;99.90;;;;;;5047108;28;20047;-67
2022/11/18 03:58:25;;;;;;;12.63;5.88;;;5.70;99.90;;;;;;5050104;28;20041;-67
2022/11/18 04:00:56;;;;;;;10.23;5.25;;;5.60;99.90;;;;;;5047311;28;20052;-67
2022/11/18 04:03:24;;;;;;;9.68;5.57;;;5.60;99.90;;;;;;5047941;28;20045;-67
2022/11/18 04:05:57;;;;;;;11.27;5.18;;;5.60;99.90;;;;;;5048338;28;20426;-67
2022/11/18 04:08:30;;;;;;;11.57;5.63;;;5.70;99.90;;;;;;5030683;28;20053;-67
2022/11/18 04:11:05;;;;;;;8.15;5.43;;;5.70;99.90;;;;;;5049406;28;20107;-66
2022/11/18 04:13:36;;;;;;;6.47;4.43;;;5.60;99.90;;;;;;5048652;28;20056;-67
2022/11/18 04:16:02;;;;;;;11.70;5.22;;;5.60;99.90;;;;;;5049045;28;20053;-67
2022/11/18 04:18:28;;;;;;;8.98;4.95;;;5.60;99.90;;;;;;5047195;28;20134;-67
2022/11/18 04:20:54;;;;;;;13.43;4.65;;;5.60;99.90;;;;;;5047001;28;20060;-67
2022/11/18 04:23:19;;;;;;;3.30;2.53;;;5.60;99.90;;;;;;5049255;28;20057;-68
2022/11/18 04:25:45;;;;;;;12.50;5.32;;;5.60;99.90;;;;;;5047990;28;20090;-67
2022/11/18 04:28:11;;;;;;;8.27;4.78;;;5.60;99.90;;;;;;5049343;28;20084;-67
2022/11/18 04:30:36;;;;;;;10.75;5.18;;;5.60;99.90;;;;;;5047696;28;20056;-67
2022/11/18 04:33:02;;;;;;;9.82;5.47;;;5.60;99.90;;;;;;5030606;28;20078;-67
2022/11/18 04:35:28;;;;;;;8.98;5.38;;;5.60;99.90;;;;;;5046623;28;20053;-66
2022/11/18 04:37:54;;;;;;;9.65;5.43;;;5.60;99.90;;;;;;5030855;28;20079;-67
2022/11/18 04:40:20;;;;;;;10.70;5.47;;;5.60;99.90;;;;;;5048839;28;20479;-67
2022/11/18 04:42:46;;;;;;;11.52;4.13;;;5.60;99.90;;;;;;5046621;28;20045;-67
2022/11/18 04:45:12;;;;;;;4.50;2.80;;;5.60;99.90;;;;;;5047703;28;20061;-67
2022/11/18 04:47:38;;;;;;;8.93;5.40;;;5.60;99.90;;;;;;5046281;28;20388;-67
2022/11/18 04:50:04;;;;;;;13.18;5.10;;;5.60;99.90;;;;;;5048588;28;20087;-67
2022/11/18 04:52:29;;;;;;;6.18;4.57;;;5.60;99.90;;;;;;5047591;28;20596;-67
2022/11/18 04:54:55;;;;;;;10.82;6.18;;;5.60;99.90;;;;;;5047310;28;20092;-66
2022/11/18 04:57:21;;;;;;;6.07;3.35;;;5.60;99.90;;;;;;5030580;28;20490;-67
2022/11/18 04:59:47;;;;;;;13.65;5.95;;;5.60;99.90;;;;;;5046822;28;20495;-67
2022/11/18 05:02:12;;;;;;;16.40;6.95;;;5.60;99.90;;;;;;5046822;28;20123;-67
2022/11/18 05:04:38;;;;;;;15.85;6.60;;;5.60;99.90;;;;;;5046251;28;20063;-67
2022/11/18 05:07:05;;;;;;;17.58;5.80;;;5.60;99.90;;;;;;5048310;28;20673;-67
2022/11/18 05:09:31;;;;;;;15.18;5.95;;;5.60;99.90;;;;;;5046999;28;20052;-67
2022/11/18 05:14:42;;;;;;;11.65;5.40;;;5.60;99.90;;;;;;5034628;28;20458;-67
2022/11/18 05:17:09;;;;;;;15.88;6.25;;;5.50;99.90;;;;;;5047513;28;20056;-67
2022/11/18 05:19:38;;;;;;;14.68;6.07;;;5.60;99.90;;;;;;5047009;28;20107;-67
2022/11/18 05:22:03;;;;;;;14.18;6.72;;;5.60;99.90;;;;;;5061670;28;20214;-67
2022/11/18 05:24:29;;;;;;;10.88;5.72;;;5.50;99.90;;;;;;5048423;28;20047;-67
2022/11/18 05:26:55;;;;;;;15.55;5.97;;;5.50;99.90;;;;;;5045098;28;20510;-67
2022/11/18 05:29:22;;;;;;;15.10;6.82;;;5.50;99.90;;;;;;5048010;28;20040;-67
2022/11/18 05:31:48;;;;;;;11.75;6.35;;;5.50;99.90;;;;;;5047218;28;20051;-67
2022/11/18 05:34:14;;;;;;;20.83;6.75;;;5.50;99.90;;;;;;5046554;28;20507;-67
2022/11/18 05:36:40;;;;;;;13.82;6.82;;;5.50;99.90;;;;;;5047950;28;20399;-67
2022/11/18 05:39:06;;;;;;;15.52;6.97;;;5.50;99.90;;;;;;5028757;28;20395;-67
2022/11/18 05:44:16;;;;;;;13.02;6.47;;;5.50;99.90;;;;;;5044539;28;20045;-67
2022/11/18 05:46:42;;;;;;;10.65;5.40;;;5.40;99.90;;;;;;5046303;28;20556;-67
2022/11/18 05:49:08;;;;;;;13.48;6.60;;;5.40;99.90;;;;;;5028892;28;20052;-67
2022/11/18 05:51:34;;;;;;;12.88;6.78;;;5.40;99.90;;;;;;5047065;28;20048;-67
2022/11/18 05:54:03;;;;;;;18.40;6.22;;;5.40;99.90;;;;;;5046152;28;20041;-67
2022/11/18 05:56:37;;;;;;;22.27;6.60;;;5.40;99.90;;;;;;5044301;28;20094;-67
2022/11/18 05:59:03;;;;;;;24.48;7.20;;;5.40;99.90;;;;;;5047353;28;20399;-67
2022/11/18 06:01:55;;;;;;;17.75;6.82;;;5.40;99.90;;;;;;5046116;28;20056;-67
2022/11/18 06:04:32;;;;;;;18.05;7.32;;;5.40;99.90;;;;;;5024620;28;20148;-67
2022/11/18 06:07:13;;;;;;;17.73;7.18;;;5.40;99.90;;;;;;5029332;28;20045;-67
2022/11/18 06:09:43;;;;;;;14.75;6.13;;;5.40;99.90;;;;;;5044750;28;20098;-67
2022/11/18 06:12:14;;;;;;;14.90;6.85;;;5.40;99.90;;;;;;5045773;28;20431;-67
2022/11/18 06:14:48;;;;;;;12.90;6.18;;;5.40;99.90;;;;;;5044271;28;20049;-67
2022/11/18 06:17:20;;;;;;;19.83;7.22;;;5.40;99.90;;;;;;5047028;28;20132;-67
2022/11/18 06:19:46;;;;;;;11.60;5.95;;;5.30;99.90;;;;;;5045347;28;20124;-67
2022/11/18 06:22:12;;;;;;;17.90;6.72;;;5.30;99.90;;;;;;5044679;28;20044;-67
2022/11/18 06:24:39;;;;;;;8.98;5.18;;;5.30;99.90;;;;;;5045630;28;20049;-67
2022/11/18 06:27:05;;;;;;;21.88;7.85;;;5.30;99.90;;;;;;5044242;28;20073;-67
2022/11/18 06:29:30;;;;;;;21.85;7.38;;;5.30;99.90;;;;;;5047263;28;20044;-67
2022/11/18 06:31:56;;;;;;;15.13;6.22;;;5.30;99.90;;;;;;5045950;28;20041;-67
2022/11/18 06:34:22;;;;;;;14.18;6.18;;;5.30;99.90;;;;;;5045642;28;20041;-67
2022/11/18 06:36:48;;;;;;;17.33;6.38;;;5.20;99.90;;;;;;5046181;28;20045;-67
2022/11/18 06:39:13;;;;;;;13.40;5.97;;;5.30;99.90;;;;;;5044943;28;20135;-67
2022/11/18 06:41:39;;;;;;;15.88;6.25;;;5.20;99.90;;;;;;5046277;28;20072;-67
2022/11/18 06:44:05;;;;;;;11.13;5.80;;;5.20;99.90;;;;;;5044532;28;20047;-67
2022/11/18 06:49:15;;;;;;;12.00;5.35;;;5.20;99.90;;;;;;5045801;28;20128;-67
2022/11/18 06:51:41;;;;;;;16.58;7.03;;;5.20;99.90;;;;;;5043356;28;20120;-67
2022/11/18 06:54:07;;;;;;;18.20;5.00;;;5.10;99.90;;;;;;5028296;28;20064;-67
2022/11/18 06:56:34;;;;;;;15.32;7.38;;;5.20;99.90;;;;;;5044677;28;20049;-67
2022/11/18 06:59:00;;;;;;;12.55;5.00;;;5.10;99.90;;;;;;5045710;28;20040;-67
2022/11/18 07:01:27;;;;;;;20.63;6.78;;;5.10;99.90;;;;;;5043848;28;20893;-67
2022/11/18 07:03:54;;;;;;;13.27;5.97;;;5.10;99.90;;;;;;5045930;28;20120;-67
2022/11/18 07:06:22;;;;;;;16.38;7.15;;;5.10;99.90;;;;;;5043361;28;20380;-67
2022/11/18 07:08:48;;;;;;;12.98;6.20;;;5.10;99.90;;;;;;5045153;28;20075;-67
2022/11/18 07:11:17;;;;;;;15.98;6.65;;;5.10;99.90;;;;;;5044006;28;20061;-67
2022/11/18 07:13:44;;;;;;;21.85;7.40;;;5.00;99.90;;;;;;5044187;28;20049;-67
2022/11/18 07:16:12;;;;;;;14.10;6.13;;;5.00;99.90;;;;;;5046006;28;20088;-67
2022/11/18 07:18:42;;;;;;;16.58;7.47;;;5.00;99.90;;;;;;5045484;28;20052;-67
2022/11/18 07:21:11;;;;;;;22.75;8.15;;;5.00;99.90;;;;;;5043742;28;20450;-67
2022/11/18 07:23:37;;;;;;;18.48;7.55;;;5.00;99.90;;;;;;5026260;28;20055;-67
2022/11/18 07:26:04;;;;;;;19.20;7.85;;;5.00;99.90;;;;;;5046582;28;20414;-67
2022/11/18 07:28:30;;;;;;;14.00;7.72;;;4.90;99.90;;;;;;5044524;28;20395;-67
2022/11/18 07:31:07;;;;;;;21.80;8.13;;;4.90;99.90;;;;;;5046706;28;20037;-67
2022/11/18 07:33:34;;;;;;;12.75;6.28;;;4.90;99.90;;;;;;5045598;28;20045;-67
2022/11/18 07:36:06;;;;;;;13.13;7.03;;;4.90;99.90;;;;;;5047537;28;20099;-67
2022/11/18 07:38:31;;;;;;;13.38;5.53;;;4.90;99.90;;;;;;5045877;28;20041;-67
2022/11/18 07:41:11;;;;;;;22.13;8.18;;;4.80;99.90;;;;;;5047723;28;20147;-67
2022/11/18 07:43:37;;;;;;;23.77;9.43;;;4.80;99.90;;;;;;5045715;28;20119;-67
2022/11/18 07:46:20;;;;;;;19.23;9.55;;;4.90;99.90;;;;;;5047610;28;20053;-67
2022/11/18 07:48:47;;;;;;;14.07;6.85;;;4.80;99.90;;;;;;5036819;28;20044;-67
2022/11/18 07:51:14;;;;;;;24.05;9.07;;;4.80;99.90;;;;;;5047910;28;20080;-67
2022/11/18 07:53:41;;;;;;;18.38;9.13;;;4.80;99.90;;;;;;5047905;28;20098;-67
2022/11/18 07:56:08;;;;;;;22.48;9.75;;;4.80;99.90;;;;;;5049683;28;20057;-67
2022/11/18 07:58:35;;;;;;;21.58;10.43;;;4.70;99.90;;;;;;5047198;28;20106;-67
2022/11/18 08:01:15;;;;;;;23.35;10.80;;;4.70;99.90;;;;;;5047806;28;20092;-67
2022/11/18 08:03:41;;;;;;;21.30;10.38;;;4.70;99.90;;;;;;5049238;28;20044;-67
2022/11/18 08:06:09;;;;;;;22.35;11.55;;;4.70;99.90;;;;;;5046580;28;20055;-67
2022/11/18 08:08:36;;;;;;;20.67;10.40;;;4.70;99.90;;;;;;5047624;28;20056;-67
2022/11/18 08:11:04;;;;;;;28.98;11.75;;;4.70;99.90;;;;;;5046646;28;20037;-67
2022/11/18 08:13:31;;;;;;;19.30;10.50;;;4.70;99.90;;;;;;5047554;28;20045;-67
2022/11/18 08:15:58;;;;;;;25.30;10.65;;;4.70;99.90;;;;;;5044440;28;20071;-67
2022/11/18 08:18:24;;;;;;;21.75;9.63;;;4.70;99.90;;;;;;5041119;28;20139;-67
2022/11/18 08:20:51;;;;;;;25.33;10.55;;;4.70;99.90;;;;;;5039980;28;20540;-68
2022/11/18 08:23:16;;;;;;;22.88;10.70;;;4.70;99.90;;;;;;5045795;28;20080;-67
2022/11/18 08:25:44;;;;;;;15.63;8.55;;;4.70;99.90;;;;;;5045135;28;20115;-67
2022/11/18 08:28:10;;;;;;;20.98;10.70;;;4.70;99.90;;;;;;5027452;28;20053;-67
2022/11/18 08:30:36;;;;;;;22.13;10.30;;;4.70;99.90;;;;;;5044653;28;20045;-67
2022/11/18 08:33:03;;;;;;;24.38;11.32;;;4.60;99.90;;;;;;5044245;28;20044;-67
2022/11/18 08:35:30;;;;;;;18.17;10.55;;;4.60;99.90;;;;;;5045609;28;20049;-67
2022/11/18 08:37:56;;;;;;;23.33;11.25;;;4.60;99.90;;;;;;5045819;28;20041;-67
2022/11/18 08:40:22;;;;;;;18.67;9.98;;;4.60;99.90;;;;;;5046113;28;20052;-67
2022/11/18 08:42:48;;;;;;;22.63;10.20;;;4.60;99.90;;;;;;5045335;28;20049;-67
2022/11/18 08:45:14;;;;;;;18.92;9.68;;;4.60;99.90;;;;;;5026615;28;21147;-67
2022/11/18 08:47:40;;;;;;;23.63;10.85;;;4.60;99.90;;;;;;5044342;28;20095;-67
2022/11/18 08:50:07;;;;;;;21.05;11.38;;;4.50;99.90;;;;;;5027541;28;20047;-67
2022/11/18 08:52:34;;;;;;;22.58;11.38;;;4.50;99.90;;;;;;5044335;28;20443;-67
2022/11/18 08:55:00;;;;;;;21.70;10.48;;;4.50;99.90;;;;;;5044624;28;20056;-67
2022/11/18 08:57:26;;;;;;;29.60;12.38;;;4.50;99.90;;;;;;5044505;28;20517;-67
2022/11/18 08:59:52;;;;;;;22.08;11.02;;;4.50;99.90;;;;;;5043525;28;20338;-67
2022/11/18 09:02:21;;;;;;;25.52;10.90;;;4.50;99.90;;;;;;5041195;28;20049;-67
2022/11/18 09:04:48;;;;;;;23.42;11.20;;;4.50;99.90;;;;;;5044563;28;20158;-67
2022/11/18 09:07:16;;;;;;;27.85;12.00;;;4.50;99.90;;;;;;5026843;28;20571;-67
2022/11/18 09:09:42;;;;;;;24.63;12.52;;;4.50;99.90;;;;;;5046046;28;20095;-67
2022/11/18 09:12:08;;;;;;;22.05;11.63;;;4.50;99.90;;;;;;5045082;28;20093;-68
2022/11/18 09:14:35;;;;;;;21.98;10.88;;;4.50;99.90;;;;;;5045814;28;20063;-67
2022/11/18 09:17:01;;;;;;;25.98;11.15;;;4.50;99.90;;;;;;5045700;28;20049;-67
2022/11/18 09:19:26;;;;;;;25.00;12.13;;;4.40;99.90;;;;;;5045033;28;20124;-67
2022/11/18 09:21:52;;;;;;;26.55;11.73;;;4.40;99.90;;;;;;5046444;28;20578;-67
2022/11/18 09:24:18;;;;;;;25.50;11.60;;;4.40;99.90;;;;;;5045376;28;20045;-67
2022/11/18 09:26:44;;;;;;;23.95;11.93;;;4.40;99.90;;;;;;5047311;28;20056;-67
2022/11/18 09:29:12;;;;;;;14.48;8.52;;;4.40;99.90;;;;;;5045136;28;20131;-67
2022/11/18 09:31:38;;;;;;;21.25;10.93;;;4.40;99.90;;;;;;5046964;28;20041;-67
2022/11/18 09:34:04;;;;;;;23.08;11.63;;;4.30;99.90;;;;;;5045769;28;20120;-67
2022/11/18 09:36:30;;;;;;;21.42;10.77;;;4.30;99.90;;;;;;5029287;28;20411;-67
2022/11/18 09:38:58;;;;;;;15.57;8.85;;;4.30;99.90;;;;;;5046735;28;20051;-67
2022/11/18 09:41:53;;;;;;;20.08;9.23;;;4.30;99.90;;;;;;5044658;28;20103;-67
2022/11/18 09:44:44;;;;;;;24.13;11.68;;;4.20;99.90;;;;;;5034706;28;20072;-66
2022/11/18 09:47:29;;;;;;;25.17;11.07;;;4.30;99.90;;;;;;5042932;28;20041;-67
2022/11/18 09:50:09;;;;;;;25.90;12.13;;;4.30;99.90;;;;;;5046715;28;20077;-67
2022/11/18 09:52:49;;;;;;;25.52;11.00;;;4.30;99.90;;;;;;5045753;28;20048;-67
2022/11/18 09:55:18;;;;;;;18.30;10.43;;;4.30;99.90;;;;;;5044159;28;20430;-67
2022/11/18 09:57:53;;;;;;;22.20;12.45;;;4.30;99.90;;;;;;5038028;28;20037;-67
2022/11/18 10:00:25;;;;;;;30.80;11.98;;;4.30;99.90;;;;;;5045007;28;20114;-67
2022/11/18 10:03:05;;;;;;;20.13;10.35;;;4.30;99.90;;;;;;5042106;28;20029;-67
2022/11/18 10:05:44;;;;;;;27.23;13.05;;;4.30;99.90;;;;;;5045221;28;20049;-67
2022/11/18 10:08:35;;;;;;;18.38;8.48;;;4.30;99.90;;;;;;5044810;28;20132;-67
2022/11/18 10:11:11;;;;;;;21.90;12.07;;;4.20;99.90;;;;;;5044221;28;20080;-67
2022/11/18 10:13:48;;;;;;;26.73;12.82;;;4.20;99.90;;;;;;5045247;28;20083;-67
2022/11/18 10:16:21;;;;;;;22.58;11.68;;;4.20;99.90;;;;;;5045782;28;20519;-67
2022/11/18 10:19:22;;;;;;;23.63;11.88;;;4.20;99.90;;;;;;5045425;28;20049;-67
2022/11/18 10:22:07;;;;;;;21.60;10.23;;;4.20;99.90;;;;;;5055183;28;20056;-67
2022/11/18 10:24:38;;;;;;;23.38;13.00;;;4.10;99.90;;;;;;5044060;28;20052;-67
2022/11/18 10:27:12;;;;;;;21.98;12.13;;;4.10;99.90;;;;;;5045865;28;20075;-67
2022/11/18 10:29:38;;;;;;;24.95;12.27;;;4.10;99.90;;;;;;5041471;28;20059;-67
2022/11/18 10:32:07;;;;;;;21.02;11.65;;;4.10;99.90;;;;;;5045529;28;20453;-67
2022/11/18 10:34:44;;;;;;;20.85;12.02;;;4.10;99.90;;;;;;5036710;28;20081;-67
2022/11/18 10:37:29;;;;;;;25.88;13.07;;;4.10;99.90;;;;;;5043286;28;20053;-67
2022/11/18 10:40:00;;;;;;;23.23;13.50;;;4.10;99.90;;;;;;5026759;28;20076;-67
2022/11/18 10:42:40;;;;;;;22.20;11.73;;;4.10;99.90;;;;;;5043668;28;20080;-67
2022/11/18 10:45:32;;;;;;;22.67;13.88;;;4.10;99.90;;;;;;5044981;28;20124;-67
2022/11/18 10:48:00;;;;;;;21.73;12.45;;;4.10;99.90;;;;;;5039183;28;20061;-66
2022/11/18 10:50:41;;;;;;;21.63;13.27;;;4.10;99.90;;;;;;5039161;28;20102;-67
2022/11/18 10:53:43;;;;;;;25.92;14.98;;;4.10;99.90;;;;;;5045812;28;20052;-67
2022/11/18 10:56:14;;;;;;;25.10;14.77;;;4.10;99.90;;;;;;4946144;28;20083;-67
2022/11/18 10:58:43;;;;;;;26.05;14.40;;;4.00;99.90;;;;;;5032553;28;20454;-67
2022/11/18 11:01:23;;;;;;;22.35;12.80;;;4.10;99.90;;;;;;5044989;28;20052;-66
2022/11/18 11:04:11;;;;;;;25.65;14.48;;;4.00;99.90;;;;;;5032288;28;20423;-66
2022/11/18 11:06:37;;;;;;;27.48;14.68;;;4.00;99.90;;;;;;5047390;28;20200;-67
2022/11/18 11:09:12;;;;;;;23.00;13.75;;;4.00;99.90;;;;;;5047563;28;20049;-67
2022/11/18 11:11:57;;;;;;;24.27;14.45;;;4.00;99.90;;;;;;5049835;28;20119;-66
2022/11/18 11:14:49;;;;;;;26.90;15.55;;;4.00;99.90;;;;;;5048911;28;20487;-66
2022/11/18 11:17:19;;;;;;;26.60;15.27;;;3.90;99.90;;;;;;5048639;28;20511;-67
2022/11/18 11:20:05;;;;;;;32.00;15.55;;;3.90;99.90;;;;;;5048416;28;20049;-67
2022/11/18 11:22:32;;;;;;;27.00;13.90;;;3.90;99.90;;;;;;5048299;28;20056;-67
2022/11/18 11:24:58;;;;;;;21.67;13.20;;;3.80;99.90;;;;;;5047510;28;20050;-67
2022/11/18 11:28:18;;;;;;;26.35;13.88;;;3.80;99.90;;;;;;5050405;28;20064;-67
2022/11/18 11:31:07;;;;;;;26.40;15.90;;;3.80;99.90;;;;;;5003407;28;20065;-67
2022/11/18 11:34:00;;;;;;;28.58;15.45;;;3.80;99.90;;;;;;5043239;28;20088;-67
2022/11/18 11:37:01;;;;;;;34.13;17.20;;;3.80;99.90;;;;;;5046161;28;20043;-67
2022/11/18 11:39:49;;;;;;;;;;;3.80;99.90;;;;;;5045369;28;20131;-67
2022/11/18 11:42:34;;;;;;;34.80;16.20;;;3.70;99.90;;;;;;5049059;28;19932;-67
2022/11/18 11:45:09;;;;;;;33.05;16.95;;;3.80;99.90;;;;;;5048005;28;20071;-68
2022/11/18 11:47:55;;;;;;;29.00;14.95;;;3.70;99.90;;;;;;5043032;28;20037;-67
2022/11/18 11:50:31;;;;;;;30.35;15.70;;;3.70;99.90;;;;;;5048054;28;20107;-67
2022/11/18 11:53:31;;;;;;;29.92;16.98;;;3.70;99.90;;;;;;5047244;28;20049;-67
2022/11/18 11:56:03;;;;;;;28.02;14.70;;;3.70;99.90;;;;;;5040230;28;20188;-67
2022/11/18 11:59:05;;;;;;;28.73;15.63;;;3.70;99.90;;;;;;5048287;28;20033;-67
2022/11/18 12:01:30;;;;;;;34.65;16.15;;;3.60;99.90;;;;;;5048191;28;20474;-67
2022/11/18 12:04:07;;;;;;;27.00;14.30;;;3.70;99.90;;;;;;5047836;28;20423;-67
2022/11/18 12:06:33;;;;;;;34.35;17.27;;;3.70;99.90;;;;;;5047473;28;20822;-67
2022/11/18 12:09:20;;;;;;;25.10;15.45;;;3.60;99.90;;;;;;5045658;28;20084;-67
2022/11/18 12:11:54;;;;;;;34.95;17.55;;;3.60;99.90;;;;;;5047741;28;20092;-67
2022/11/18 12:14:46;;;;;;;27.23;16.30;;;3.60;99.90;;;;;;5048381;28;20158;-67
2022/11/18 12:17:26;;;;;;;36.05;18.48;;;3.60;99.90;;;;;;5045251;28;20124;-67
2022/11/18 12:19:52;;;;;;;28.10;16.63;;;3.60;99.90;;;;;;5055637;28;20128;-67
2022/11/18 12:22:17;;;;;;;29.83;16.60;;;3.70;99.90;;;;;;5045909;28;20110;-67
2022/11/18 12:24:43;;;;;;;24.33;12.18;;;3.70;99.90;;;;;;5040607;28;20496;-67
2022/11/18 12:27:29;;;;;;;29.38;15.65;;;3.60;99.90;;;;;;5045008;28;20048;-67
2022/11/18 12:30:00;;;;;;;34.88;17.25;;;3.60;99.90;;;;;;5043822;28;20462;-68
2022/11/18 12:32:41;;;;;;;33.33;18.02;;;3.60;99.90;;;;;;5045054;28;20368;-67
2022/11/18 12:35:12;;;;;;;32.78;19.90;;;3.60;99.90;;;;;;5040029;28;20468;-67
2022/11/18 12:37:42;;;;;;;33.05;19.27;;;3.60;99.90;;;;;;5038818;28;20479;-67
2022/11/18 12:40:10;;;;;;;37.75;20.30;;;3.60;99.90;;;;;;5045780;28;20539;-67
2022/11/18 12:45:39;;;;;;;30.45;17.75;;;3.60;99.90;;;;;;5039716;28;20041;-67
2022/11/18 12:48:23;;;;;;;23.88;11.35;;;3.60;99.90;;;;;;5045900;28;20474;-68
2022/11/18 12:50:51;;;;;;;22.98;13.55;;;3.50;99.90;;;;;;5020693;28;20040;-67
2022/11/18 12:53:38;;;;;;;22.92;12.93;;;3.50;99.90;;;;;;5046451;28;20076;-67
2022/11/18 12:56:25;;;;;;;28.80;17.13;;;3.50;99.90;;;;;;5046638;28;20394;-67
2022/11/18 12:58:59;;;;;;;37.08;19.65;;;3.50;99.90;;;;;;5037372;28;20041;-67
2022/11/18 13:01:27;;;;;;;35.70;20.65;;;3.50;99.90;;;;;;5042387;28;20467;-68
2022/11/18 13:04:15;;;;;;;31.23;18.52;;;3.50;99.90;;;;;;5046047;28;20091;-68
2022/11/18 13:06:42;;;;;;;30.60;19.23;;;3.50;99.90;;;;;;5041200;28;20515;-67
2022/11/18 13:09:16;;;;;;;33.28;20.75;;;3.50;99.90;;;;;;5028901;28;20148;-68
2022/11/18 13:12:09;;;;;;;32.03;19.45;;;3.50;99.90;;;;;;5044558;28;20055;-68
2022/11/18 13:20:34;;;;;;;;;;;3.50;99.90;;;;;;5044889;28;20049;-68
2022/11/18 13:26:02;;;;;;;31.33;20.58;;;3.50;99.90;;;;;;5045141;28;20053;-68
2022/11/18 13:28:46;;;;;;;32.80;19.02;;;3.40;99.90;;;;;;5043101;28;20052;-68
2022/11/18 13:31:24;;;;;;;32.17;18.40;;;3.40;99.90;;;;;;5043571;28;20395;-67
2022/11/18 13:33:51;;;;;;;28.52;18.48;;;3.40;99.90;;;;;;5042367;28;20049;-68